Time;durP1;ratioP1;P1;durP2;ratioP2;P2;SDS_P1;SDS_P2;PMS_P1;PMS_P2;Temp;Humidity;BMP_temperature;BMP_pressure;BME280_temperature;BME280_humidity;BME280_pressure;Samples;Min_cycle;Max_cycle;Signal;HPM_P1;HPM_P2
2022/04/04 00:01:53;;;;;;;18.63;11.07;;;;;;;;;;5072325;28;20098;-67
2022/04/04 00:04:20;;;;;;;19.58;12.70;;;;;;;;;;5072466;28;20063;-68
2022/04/04 00:06:46;;;;;;;18.20;11.30;;;;;;;;;;5054606;28;20059;-67
2022/04/04 00:09:13;;;;;;;18.98;12.13;;;;;;;;;;5054610;28;20503;-67
2022/04/04 00:11:40;;;;;;;19.38;12.27;;;;;;;;;;5072095;28;20063;-68
2022/04/04 00:14:06;;;;;;;16.30;11.75;;;;;;;;;;5037656;28;20052;-67
2022/04/04 00:16:33;;;;;;;19.20;11.45;;;;;;;;;;5072402;28;20052;-67
2022/04/04 00:19:00;;;;;;;17.25;12.73;;;;;;;;;;5038133;28;20087;-67
2022/04/04 00:21:27;;;;;;;18.05;11.77;;;;;;;;;;5052088;28;20401;-67
2022/04/04 00:23:54;;;;;;;18.00;11.95;;;;;;;;;;5018225;28;20059;-67
2022/04/04 00:26:21;;;;;;;17.08;12.63;;;;;;;;;;5034374;28;20045;-67
2022/04/04 00:28:49;;;;;;;16.98;12.27;;;;;;;;;;5018112;28;20480;-67
2022/04/04 00:31:18;;;;;;;18.20;12.05;;;;;;;;;;5034622;28;20053;-67
2022/04/04 00:33:45;;;;;;;19.30;11.88;;;;;;;;;;5051857;28;20512;-67
2022/04/04 00:36:13;;;;;;;16.95;12.02;;;;;;;;;;5051948;28;20048;-67
2022/04/04 00:38:40;;;;;;;18.92;12.63;;;;;;;;;;5018002;28;20048;-67
2022/04/04 00:41:10;;;;;;;21.23;12.52;;;;;;;;;;5018006;28;20110;-68
2022/04/04 00:43:37;;;;;;;18.58;12.60;;;;;;;;;;5018197;28;20110;-68
2022/04/04 00:46:04;;;;;;;19.70;13.23;;;;;;;;;;5034232;28;20095;-67
2022/04/04 00:48:31;;;;;;;16.83;11.65;;;;;;;;;;5043920;28;20119;-67
2022/04/04 00:50:58;;;;;;;20.38;12.48;;;;;;;;;;5037551;28;20052;-68
2022/04/04 00:53:26;;;;;;;21.27;13.35;;;;;;;;;;5053762;28;20113;-67
2022/04/04 00:55:54;;;;;;;16.48;11.38;;;;;;;;;;5037915;28;20050;-67
2022/04/04 00:58:20;;;;;;;18.65;11.65;;;;;;;;;;5054324;28;20051;-67
2022/04/04 01:00:48;;;;;;;17.38;12.13;;;;;;;;;;5053976;28;20059;-67
2022/04/04 01:03:15;;;;;;;17.58;11.82;;;;;;;;;;5053921;28;20044;-67
2022/04/04 01:05:44;;;;;;;16.95;12.65;;;;;;;;;;5054295;28;20057;-68
2022/04/04 01:08:12;;;;;;;16.63;11.38;;;;;;;;;;5054499;28;20070;-67
2022/04/04 01:10:40;;;;;;;17.80;12.52;;;;;;;;;;5071753;28;20102;-67
2022/04/04 01:13:07;;;;;;;17.77;11.45;;;;;;;;;;5037705;28;20094;-68
2022/04/04 01:15:34;;;;;;;20.75;12.00;;;;;;;;;;5071744;28;20053;-68
2022/04/04 01:18:00;;;;;;;15.95;11.07;;;;;;;;;;5071473;28;20090;-68
2022/04/04 01:20:27;;;;;;;21.90;13.43;;;;;;;;;;5072195;28;20053;-68
2022/04/04 01:22:54;;;;;;;17.92;12.25;;;;;;;;;;5054316;28;20052;-68
2022/04/04 01:25:28;;;;;;;18.33;12.38;;;;;;;;;;5073883;28;20117;-67
2022/04/04 01:27:56;;;;;;;17.23;12.40;;;;;;;;;;5058109;28;20422;-68
2022/04/04 01:30:24;;;;;;;17.42;12.32;;;;;;;;;;5057633;28;20052;-67
2022/04/04 01:32:51;;;;;;;16.92;11.85;;;;;;;;;;5057699;28;20392;-67
2022/04/04 01:35:19;;;;;;;20.05;13.30;;;;;;;;;;5075660;28;20052;-67
2022/04/04 01:37:46;;;;;;;21.92;13.15;;;;;;;;;;5075287;28;20049;-68
2022/04/04 01:40:13;;;;;;;17.58;12.93;;;;;;;;;;5041324;28;20048;-67
2022/04/04 01:42:39;;;;;;;21.55;13.68;;;;;;;;;;5075155;28;20106;-67
2022/04/04 01:45:08;;;;;;;20.50;13.55;;;;;;;;;;5075122;28;20056;-68
2022/04/04 01:47:35;;;;;;;22.83;13.75;;;;;;;;;;5041102;28;20059;-68
2022/04/04 01:50:03;;;;;;;18.52;13.65;;;;;;;;;;5040957;28;20049;-68
2022/04/04 01:52:29;;;;;;;22.52;13.68;;;;;;;;;;5040843;28;20048;-68
2022/04/04 01:54:56;;;;;;;20.95;13.45;;;;;;;;;;5057254;28;20110;-67
2022/04/04 02:01:01;;;;;;;16.98;12.38;;;;;;;;;;5054866;28;20045;-67
2022/04/04 02:03:31;;;;;;;21.02;13.13;;;;;;;;;;5037522;28;20148;-68
2022/04/04 02:05:58;;;;;;;17.88;12.50;;;;;;;;;;5021299;28;20049;-67
2022/04/04 02:08:24;;;;;;;18.33;12.95;;;;;;;;;;5020793;28;20049;-68
2022/04/04 02:10:51;;;;;;;18.77;12.43;;;;;;;;;;5054930;28;20059;-67
2022/04/04 02:13:18;;;;;;;17.17;12.63;;;;;;;;;;5036993;28;20496;-68
2022/04/04 02:15:45;;;;;;;18.20;12.82;;;;;;;;;;5054475;28;20484;-67
2022/04/04 02:18:12;;;;;;;19.10;12.27;;;;;;;;;;5020664;28;20049;-67
2022/04/04 02:20:38;;;;;;;21.88;12.77;;;;;;;;;;5036519;28;20045;-68
2022/04/04 02:23:05;;;;;;;18.30;12.93;;;;;;;;;;5054261;28;20060;-68
2022/04/04 02:25:32;;;;;;;18.52;12.60;;;;;;;;;;5036800;28;20052;-67
2022/04/04 02:27:58;;;;;;;19.15;12.48;;;;;;;;;;5085356;23;20052;-66
2022/04/04 02:30:25;;;;;;;17.70;12.52;;;;;;;;;;5074323;28;20053;-66
2022/04/04 02:32:51;;;;;;;17.80;12.15;;;;;;;;;;5074095;28;20053;-66
2022/04/04 02:35:19;;;;;;;18.75;12.02;;;;;;;;;;5074005;28;20097;-66
2022/04/04 02:37:47;;;;;;;19.50;13.55;;;;;;;;;;5073635;28;20048;-66
2022/04/04 02:40:13;;;;;;;16.42;11.98;;;;;;;;;;5074142;28;20082;-65
2022/04/04 02:42:40;;;;;;;21.17;12.68;;;;;;;;;;5074096;28;20049;-67
2022/04/04 02:45:07;;;;;;;18.88;12.65;;;;;;;;;;5074029;28;20082;-66
2022/04/04 02:47:34;;;;;;;17.70;11.70;;;;;;;;;;5073932;28;20560;-66
2022/04/04 02:50:01;;;;;;;17.65;11.82;;;;;;;;;;5073826;28;20114;-66
2022/04/04 02:52:28;;;;;;;18.50;12.68;;;;;;;;;;5073829;28;20615;-66
2022/04/04 02:54:54;;;;;;;17.20;12.00;;;;;;;;;;5073596;28;20098;-66
2022/04/04 02:57:21;;;;;;;19.90;12.63;;;;;;;;;;5073770;28;20052;-66
2022/04/04 02:59:48;;;;;;;17.17;12.20;;;;;;;;;;5073715;28;20040;-65
2022/04/04 03:02:15;;;;;;;16.65;12.05;;;;;;;;;;5073570;28;20049;-66
2022/04/04 03:04:42;;;;;;;18.25;12.77;;;;;;;;;;5073547;28;20122;-65
2022/04/04 03:07:09;;;;;;;19.67;13.82;;;;;;;;;;5073739;28;20059;-66
2022/04/04 03:09:37;;;;;;;18.63;11.85;;;;;;;;;;5073684;28;20044;-66
2022/04/04 03:12:06;;;;;;;17.85;12.50;;;;;;;;;;5073253;28;20578;-66
2022/04/04 03:14:32;;;;;;;17.85;12.32;;;;;;;;;;5073511;28;20044;-65
2022/04/04 03:16:59;;;;;;;15.85;11.85;;;;;;;;;;5073369;28;20049;-65
2022/04/04 03:19:27;;;;;;;19.23;13.90;;;;;;;;;;5073310;28;20071;-66
2022/04/04 03:21:56;;;;;;;16.80;12.60;;;;;;;;;;5073138;28;20052;-66
2022/04/04 03:24:23;;;;;;;20.90;13.07;;;;;;;;;;5073365;28;20136;-65
2022/04/04 03:26:50;;;;;;;17.90;12.60;;;;;;;;;;5073181;28;20045;-65
2022/04/04 03:29:17;;;;;;;21.08;14.38;;;;;;;;;;5073071;28;20041;-66
2022/04/04 03:31:44;;;;;;;21.98;13.77;;;;;;;;;;5072914;28;20048;-66
2022/04/04 03:34:10;;;;;;;20.73;14.02;;;;;;;;;;5072986;28;20055;-66
2022/04/04 03:36:37;;;;;;;22.90;14.07;;;;;;;;;;5073081;28;20060;-66
2022/04/04 03:39:04;;;;;;;21.60;15.18;;;;;;;;;;5072819;28;20094;-66
2022/04/04 03:41:30;;;;;;;23.45;14.85;;;;;;;;;;5072807;28;20048;-66
2022/04/04 03:43:57;;;;;;;20.48;14.23;;;;;;;;;;5072843;28;20177;-66
2022/04/04 03:46:24;;;;;;;21.73;14.50;;;;;;;;;;5072706;28;20056;-67
2022/04/04 03:48:51;;;;;;;23.48;14.32;;;;;;;;;;5071634;28;20040;-67
2022/04/04 03:51:17;;;;;;;19.70;14.35;;;;;;;;;;5072696;28;20056;-66
2022/04/04 03:53:44;;;;;;;19.42;14.35;;;;;;;;;;5072796;28;20052;-66
2022/04/04 03:56:11;;;;;;;23.45;14.13;;;;;;;;;;5072718;28;20060;-66
2022/04/04 03:58:38;;;;;;;21.17;13.93;;;;;;;;;;5072322;28;20048;-66
2022/04/04 04:01:04;;;;;;;21.38;14.30;;;;;;;;;;5072237;28;20055;-66
2022/04/04 04:03:31;;;;;;;20.60;14.48;;;;;;;;;;5072655;28;20489;-66
2022/04/04 04:06:11;;;;;;;22.30;13.32;;;;;;;;;;5072526;28;20057;-66
2022/04/04 04:08:40;;;;;;;20.17;13.35;;;;;;;;;;5072733;28;20040;-67
2022/04/04 04:11:07;;;;;;;20.98;14.18;;;;;;;;;;5072019;28;20045;-66
2022/04/04 04:13:34;;;;;;;20.73;13.82;;;;;;;;;;5072034;28;20051;-66
2022/04/04 04:16:02;;;;;;;20.52;13.73;;;;;;;;;;5072432;28;20427;-66
2022/04/04 04:18:29;;;;;;;20.63;15.10;;;;;;;;;;5072297;28;20059;-66
2022/04/04 04:20:56;;;;;;;23.65;15.60;;;;;;;;;;5072157;28;20052;-66
2022/04/04 04:23:23;;;;;;;21.98;15.45;;;;;;;;;;5072253;28;20506;-66
2022/04/04 04:25:50;;;;;;;24.63;15.93;;;;;;;;;;5072178;28;20072;-66
2022/04/04 04:28:18;;;;;;;21.67;14.93;;;;;;;;;;5072137;28;20461;-66
2022/04/04 04:30:44;;;;;;;23.00;14.48;;;;;;;;;;5072061;28;20109;-66
2022/04/04 04:33:11;;;;;;;22.67;14.88;;;;;;;;;;5072301;28;20048;-66
2022/04/04 04:35:38;;;;;;;22.30;15.10;;;;;;;;;;5072194;28;20498;-67
2022/04/04 04:38:04;;;;;;;23.00;15.07;;;;;;;;;;5071843;28;20049;-66
2022/04/04 04:40:31;;;;;;;24.13;16.30;;;;;;;;;;5071974;28;20102;-66
2022/04/04 04:42:58;;;;;;;23.08;15.85;;;;;;;;;;5071843;28;20052;-66
2022/04/04 04:45:25;;;;;;;38.38;20.83;;;;;;;;;;5072018;28;20062;-66
2022/04/04 04:47:52;;;;;;;50.53;27.48;;;;;;;;;;5072395;28;20044;-66
2022/04/04 04:50:20;;;;;;;41.45;25.70;;;;;;;;;;5072102;28;20055;-67
2022/04/04 04:52:47;;;;;;;33.85;20.67;;;;;;;;;;5071735;28;20052;-67
2022/04/04 04:55:15;;;;;;;27.83;19.33;;;;;;;;;;5072209;28;20052;-67
2022/04/04 04:57:42;;;;;;;27.10;17.65;;;;;;;;;;5071887;28;20132;-67
2022/04/04 05:00:11;;;;;;;24.02;16.48;;;;;;;;;;5071575;28;20048;-67
2022/04/04 05:02:37;;;;;;;23.90;15.95;;;;;;;;;;5071816;28;20048;-67
2022/04/04 05:05:04;;;;;;;26.15;17.80;;;;;;;;;;5071971;28;20090;-67
2022/04/04 05:07:32;;;;;;;24.67;17.58;;;;;;;;;;5071618;28;20491;-67
2022/04/04 05:09:58;;;;;;;26.10;16.77;;;;;;;;;;5072081;28;20045;-67
2022/04/04 05:12:25;;;;;;;23.30;16.35;;;;;;;;;;5071981;28;20053;-67
2022/04/04 05:14:52;;;;;;;25.48;16.63;;;;;;;;;;5072295;28;20052;-67
2022/04/04 05:17:18;;;;;;;25.08;16.58;;;;;;;;;;5071754;28;20052;-67
2022/04/04 05:19:45;;;;;;;27.08;16.17;;;;;;;;;;5071326;28;20086;-67
2022/04/04 05:22:14;;;;;;;21.70;15.43;;;;;;;;;;5071536;28;20186;-67
2022/04/04 05:24:41;;;;;;;23.75;15.73;;;;;;;;;;5071829;28;20063;-67
2022/04/04 05:27:08;;;;;;;24.05;17.17;;;;;;;;;;5071261;28;20052;-67
2022/04/04 05:29:34;;;;;;;26.83;16.52;;;;;;;;;;5071675;28;20055;-68
2022/04/04 05:32:01;;;;;;;23.90;15.85;;;;;;;;;;5071328;28;20048;-67
2022/04/04 05:34:30;;;;;;;21.85;15.25;;;;;;;;;;5071388;28;20057;-69
2022/04/04 05:36:59;;;;;;;21.92;16.00;;;;;;;;;;5071339;28;20106;-67
2022/04/04 05:39:25;;;;;;;20.52;14.43;;;;;;;;;;5071323;28;20044;-67
2022/04/04 05:41:52;;;;;;;23.02;14.77;;;;;;;;;;5071191;28;20094;-67
2022/04/04 05:44:19;;;;;;;20.23;15.18;;;;;;;;;;5071294;28;20052;-66
2022/04/04 05:46:47;;;;;;;21.67;14.85;;;;;;;;;;5068371;28;20139;-67
2022/04/04 05:49:15;;;;;;;23.30;15.25;;;;;;;;;;5071601;28;20049;-67
2022/04/04 05:51:41;;;;;;;21.90;14.73;;;;;;;;;;5071121;28;20052;-67
2022/04/04 05:54:27;;;;;;;21.45;14.18;;;;;;;;;;5071493;28;20110;-67
2022/04/04 05:56:54;;;;;;;22.63;13.98;;;;;;;;;;5070958;28;20055;-67
2022/04/04 05:59:22;;;;;;;19.67;13.57;;;;;;;;;;5068574;28;20072;-67
2022/04/04 06:01:49;;;;;;;19.50;12.98;;;;;;;;;;5071052;28;20048;-67
2022/04/04 06:04:16;;;;;;;16.75;13.02;;;;;;;;;;5071359;28;20053;-66
2022/04/04 06:06:43;;;;;;;17.40;13.15;;;;;;;;;;5071265;28;20044;-66
2022/04/04 06:09:09;;;;;;;17.25;11.85;;;;;;;;;;5071146;28;20059;-67
2022/04/04 06:11:36;;;;;;;13.43;10.77;;;;;;;;;;5071995;28;20056;-66
2022/04/04 06:14:03;;;;;;;14.88;10.50;;;;;;;;;;5074627;28;20125;-66
2022/04/04 06:16:29;;;;;;;16.02;11.82;;;;;;;;;;5057275;28;20426;-66
2022/04/04 06:18:56;;;;;;;14.88;9.30;;;;;;;;;;5074474;28;20056;-66
2022/04/04 06:21:22;;;;;;;14.65;10.32;;;;;;;;;;5074646;28;20125;-67
2022/04/04 06:23:49;;;;;;;17.15;11.50;;;;;;;;;;5074582;28;20422;-66
2022/04/04 06:26:16;;;;;;;13.65;10.30;;;;;;;;;;5074625;28;20044;-67
2022/04/04 06:28:43;;;;;;;14.02;9.88;;;;;;;;;;5074301;28;20060;-66
2022/04/04 06:31:10;;;;;;;15.48;10.30;;;;;;;;;;5071444;28;20048;-66
2022/04/04 06:33:39;;;;;;;13.93;10.38;;;;;;;;;;5072616;28;20418;-66
2022/04/04 06:36:06;;;;;;;13.23;9.13;;;;;;;;;;5072644;28;20045;-66
2022/04/04 06:38:33;;;;;;;14.13;9.45;;;;;;;;;;5072261;28;20044;-66
2022/04/04 06:40:59;;;;;;;15.77;10.05;;;;;;;;;;5071887;28;20044;-66
2022/04/04 06:43:26;;;;;;;12.73;9.05;;;;;;;;;;5072152;28;20059;-65
2022/04/04 06:45:53;;;;;;;13.27;9.55;;;;;;;;;;5072531;28;20540;-65
2022/04/04 06:48:21;;;;;;;12.27;8.60;;;;;;;;;;5072191;28;20506;-65
2022/04/04 06:50:48;;;;;;;12.57;8.90;;;;;;;;;;5072179;28;20442;-65
2022/04/04 06:53:14;;;;;;;13.63;9.50;;;;;;;;;;5072138;28;20565;-66
2022/04/04 06:55:44;;;;;;;11.48;8.35;;;;;;;;;;5071756;28;20124;-66
2022/04/04 06:58:11;;;;;;;11.80;8.27;;;;;;;;;;5071905;28;20086;-65
2022/04/04 07:00:38;;;;;;;13.55;9.13;;;;;;;;;;5071861;28;20139;-65
2022/04/04 07:03:08;;;;;;;13.88;9.10;;;;;;;;;;5071852;28;20601;-66
2022/04/04 07:05:35;;;;;;;12.38;9.15;;;;;;;;;;5072052;28;20521;-66
2022/04/04 07:08:02;;;;;;;12.65;9.80;;;;;;;;;;5072039;28;20048;-65
2022/04/04 07:10:29;;;;;;;13.32;9.65;;;;;;;;;;5054045;28;20060;-65
2022/04/04 07:12:56;;;;;;;11.55;8.77;;;;;;;;;;5071722;28;20519;-65
2022/04/04 07:15:23;;;;;;;13.43;10.23;;;;;;;;;;5071966;28;20049;-65
2022/04/04 07:17:49;;;;;;;14.38;9.77;;;;;;;;;;5071929;28;20048;-65
2022/04/04 07:20:19;;;;;;;14.98;10.20;;;;;;;;;;5071807;28;20044;-65
2022/04/04 07:22:46;;;;;;;14.13;10.10;;;;;;;;;;5050829;28;20052;-65
2022/04/04 07:25:14;;;;;;;13.93;9.63;;;;;;;;;;5051896;28;20492;-65
2022/04/04 07:27:43;;;;;;;16.05;9.55;;;;;;;;;;5051548;28;20111;-65
2022/04/04 07:30:11;;;;;;;14.63;8.40;;;;;;;;;;5051411;28;20048;-66
2022/04/04 07:32:38;;;;;;;14.68;8.70;;;;;;;;;;5051412;28;20522;-65
2022/04/04 07:35:08;;;;;;;14.23;9.70;;;;;;;;;;5051104;28;20679;-65
2022/04/04 07:37:34;;;;;;;13.90;8.90;;;;;;;;;;5051547;28;20544;-65
2022/04/04 07:40:01;;;;;;;11.93;7.95;;;;;;;;;;5052738;28;20052;-65
2022/04/04 07:42:28;;;;;;;12.18;8.13;;;;;;;;;;5071041;28;20569;-66
2022/04/04 07:44:55;;;;;;;14.50;8.38;;;;;;;;;;5071263;28;20064;-66
2022/04/04 07:47:21;;;;;;;12.20;8.43;;;;;;;;;;5070714;28;20422;-65
2022/04/04 07:49:48;;;;;;;14.40;8.50;;;;;;;;;;5070453;28;20086;-69
2022/04/04 07:52:15;;;;;;;12.88;8.02;;;;;;;;;;5070531;28;20048;-66
2022/04/04 07:54:42;;;;;;;10.98;6.90;;;;;;;;;;5072186;28;20419;-71
2022/04/04 07:57:09;;;;;;;11.55;7.78;;;;;;;;;;5053995;28;20044;-68
2022/04/04 07:59:36;;;;;;;9.38;7.10;;;;;;;;;;5065321;28;20491;-62
2022/04/04 08:02:03;;;;;;;13.02;7.28;;;;;;;;;;5059905;28;20655;-71
2022/04/04 08:04:30;;;;;;;10.98;7.45;;;;;;;;;;5058871;28;20052;-68
2022/04/04 08:06:57;;;;;;;11.75;7.00;;;;;;;;;;5058946;28;20080;-71
2022/04/04 08:09:24;;;;;;;10.55;7.20;;;;;;;;;;5061610;28;20044;-69
2022/04/04 08:11:52;;;;;;;9.50;7.32;;;;;;;;;;5063941;28;20103;-68
2022/04/04 08:14:20;;;;;;;11.07;7.72;;;;;;;;;;5058208;28;20041;-71
2022/04/04 08:16:46;;;;;;;9.77;7.90;;;;;;;;;;5063197;28;20051;-72
2022/04/04 08:19:13;;;;;;;12.02;7.25;;;;;;;;;;5056999;28;20111;-71
2022/04/04 08:21:44;;;;;;;8.68;7.13;;;;;;;;;;5059884;28;20079;-72
2022/04/04 08:24:12;;;;;;;11.20;7.32;;;;;;;;;;5059143;28;20052;-69
2022/04/04 08:26:40;;;;;;;11.18;7.18;;;;;;;;;;5058975;28;20052;-71
2022/04/04 08:29:10;;;;;;;11.25;7.57;;;;;;;;;;5057931;28;20454;-65
2022/04/04 08:31:38;;;;;;;16.75;8.55;;;;;;;;;;5060546;28;20056;-65
2022/04/04 08:34:05;;;;;;;10.55;7.38;;;;;;;;;;5057969;28;20480;-67
2022/04/04 08:36:38;;;;;;;12.95;7.13;;;;;;;;;;5057510;28;20052;-68
2022/04/04 08:39:04;;;;;;;8.75;7.25;;;;;;;;;;5059592;28;20045;-65
2022/04/04 08:41:31;;;;;;;10.25;7.15;;;;;;;;;;5056859;28;20402;-67
2022/04/04 08:44:00;;;;;;;10.02;6.75;;;;;;;;;;5060324;28;20794;-67
2022/04/04 08:46:27;;;;;;;8.90;6.30;;;;;;;;;;5057943;28;20049;-65
2022/04/04 08:48:57;;;;;;;8.75;6.63;;;;;;;;;;5041363;28;20098;-64
2022/04/04 08:51:27;;;;;;;7.20;5.65;;;;;;;;;;5058066;28;20049;-67
2022/04/04 08:53:54;;;;;;;9.95;6.95;;;;;;;;;;5058055;28;20053;-66
2022/04/04 08:56:23;;;;;;;9.07;6.32;;;;;;;;;;5058309;28;20495;-66
2022/04/04 08:58:51;;;;;;;8.25;6.38;;;;;;;;;;5060684;28;20462;-65
2022/04/04 09:01:21;;;;;;;8.70;6.45;;;;;;;;;;5061443;28;20037;-65
2022/04/04 09:04:12;;;;;;;6.90;5.93;;;;;;;;;;5039593;28;20049;-69
2022/04/04 09:06:53;;;;;;;8.15;6.53;;;;;;;;;;5035170;28;20065;-66
2022/04/04 09:09:24;;;;;;;5.93;5.32;;;;;;;;;;5060516;28;20109;-66
2022/04/04 09:11:52;;;;;;;5.68;5.15;;;;;;;;;;5058137;28;20051;-67
2022/04/04 09:14:24;;;;;;;6.18;4.80;;;;;;;;;;5060257;28;20485;-66
2022/04/04 09:16:55;;;;;;;5.10;4.60;;;;;;;;;;5061136;28;20049;-68
2022/04/04 09:19:27;;;;;;;4.93;4.43;;;;;;;;;;5056618;28;20048;-72
2022/04/04 09:21:54;;;;;;;9.82;4.90;;;;;;;;;;5059326;28;20057;-65
2022/04/04 09:24:41;;;;;;;5.95;4.28;;;;;;;;;;5056946;28;20049;-73
2022/04/04 09:27:11;;;;;;;6.78;4.93;;;;;;;;;;5033740;28;20136;-71
2022/04/04 09:29:41;;;;;;;7.10;4.57;;;;;;;;;;5063257;28;20049;-69
2022/04/04 09:32:14;;;;;;;5.03;4.10;;;;;;;;;;5057607;28;20048;-67
2022/04/04 09:35:20;;;;;;;;;;;;;;;;;;5056970;28;20128;-70
2022/04/04 09:38:16;;;;;;;4.68;3.90;;;;;;;;;;5046884;28;19924;-72
2022/04/04 09:40:53;;;;;;;5.35;4.38;;;;;;;;;;5043187;28;20044;-71
2022/04/04 09:43:21;;;;;;;4.70;4.30;;;;;;;;;;5035257;28;20041;-69
2022/04/04 09:45:49;;;;;;;4.28;3.67;;;;;;;;;;5026031;28;20083;-67
2022/04/04 09:48:16;;;;;;;6.18;4.10;;;;;;;;;;5062858;28;20084;-69
2022/04/04 09:50:47;;;;;;;5.10;4.60;;;;;;;;;;5061855;28;20052;-66
2022/04/04 09:53:19;;;;;;;5.20;4.45;;;;;;;;;;5060623;28;20060;-64
2022/04/04 09:55:52;;;;;;;5.40;4.72;;;;;;;;;;5063191;28;20052;-62
2022/04/04 09:58:20;;;;;;;6.15;4.43;;;;;;;;;;5063936;28;20133;-67
2022/04/04 10:00:49;;;;;;;7.78;4.00;;;;;;;;;;5062006;28;20495;-65
2022/04/04 10:03:22;;;;;;;8.93;4.70;;;;;;;;;;5068056;28;20045;-66
2022/04/04 10:06:06;;;;;;;7.00;4.63;;;;;;;;;;5060537;28;20067;-69
2022/04/04 10:08:33;;;;;;;5.32;4.55;;;;;;;;;;5042211;28;20701;-70
2022/04/04 10:11:00;;;;;;;11.02;4.63;;;;;;;;;;5067630;28;20048;-69
2022/04/04 10:13:26;;;;;;;4.68;4.18;;;;;;;;;;5042110;28;20052;-71
2022/04/04 10:15:53;;;;;;;5.90;4.60;;;;;;;;;;5061573;28;20044;-69
2022/04/04 10:18:20;;;;;;;5.80;5.07;;;;;;;;;;5061522;28;20110;-72
2022/04/04 10:20:54;;;;;;;6.38;5.30;;;;;;;;;;5046226;28;20424;-70
2022/04/04 10:23:22;;;;;;;6.95;5.20;;;;;;;;;;5026439;28;20094;-72
2022/04/04 10:25:50;;;;;;;6.20;5.15;;;;;;;;;;5027186;28;20053;-68
2022/04/04 10:28:30;;;;;;;10.15;4.90;;;;;;;;;;5043325;28;20048;-71
2022/04/04 10:31:10;;;;;;;6.03;4.78;;;;;;;;;;5059887;28;20048;-70
2022/04/04 10:33:37;;;;;;;8.40;5.65;;;;;;;;;;5063057;28;20122;-69
2022/04/04 10:36:06;;;;;;;6.53;5.60;;;;;;;;;;5059137;28;20049;-70
2022/04/04 10:38:39;;;;;;;7.65;5.60;;;;;;;;;;5059336;28;20419;-72
2022/04/04 10:41:08;;;;;;;;;;;;;;;;;;5062638;28;20040;-70
2022/04/04 10:43:36;;;;;;;7.25;5.05;;;;;;;;;;5061244;28;20002;-71
2022/04/04 10:46:08;;;;;;;6.03;4.95;;;;;;;;;;5064740;28;20056;-73
2022/04/04 10:48:38;;;;;;;7.57;5.32;;;;;;;;;;5029663;28;20049;-72
2022/04/04 10:51:35;;;;;;;5.65;4.80;;;;;;;;;;5043032;28;20052;-72
2022/04/04 10:54:04;;;;;;;8.55;5.60;;;;;;;;;;5050346;28;20111;-67
2022/04/04 10:56:33;;;;;;;6.80;4.82;;;;;;;;;;5061126;28;20048;-65
2022/04/04 10:59:14;;;;;;;4.82;4.32;;;;;;;;;;5058423;28;20095;-71
2022/04/04 11:01:46;;;;;;;6.63;4.32;;;;;;;;;;5063915;28;20088;-65
2022/04/04 11:04:30;;;;;;;5.43;4.75;;;;;;;;;;5043267;28;20131;-66
2022/04/04 11:09:57;;;;;;;5.40;4.85;;;;;;;;;;5057979;28;20115;-66
2022/04/04 11:12:25;;;;;;;6.40;5.78;;;;;;;;;;5043927;28;20053;-66
2022/04/04 11:15:04;;;;;;;8.32;5.60;;;;;;;;;;5030305;28;20048;-66
2022/04/04 11:17:36;;;;;;;7.90;5.07;;;;;;;;;;5043356;28;20052;-65
2022/04/04 11:20:13;;;;;;;6.30;4.82;;;;;;;;;;5058624;28;20071;-64
2022/04/04 11:22:44;;;;;;;9.75;4.68;;;;;;;;;;5050255;28;20458;-64
2022/04/04 11:25:37;;;;;;;5.70;4.38;;;;;;;;;;5058318;28;20049;-65
2022/04/04 11:28:04;;;;;;;4.55;4.10;;;;;;;;;;5058771;28;20110;-64
2022/04/04 11:30:31;;;;;;;4.10;3.70;;;;;;;;;;5059677;28;20135;-65
2022/04/04 11:32:59;;;;;;;4.18;3.78;;;;;;;;;;5059010;28;20062;-64
2022/04/04 11:35:31;;;;;;;7.68;4.28;;;;;;;;;;5058952;28;20495;-65
2022/04/04 11:38:05;;;;;;;5.40;3.83;;;;;;;;;;5058476;28;20056;-65
2022/04/04 11:40:34;;;;;;;7.78;4.45;;;;;;;;;;5058221;28;20075;-65
2022/04/04 11:43:04;;;;;;;5.65;4.40;;;;;;;;;;5059855;28;20054;-65
2022/04/04 11:45:35;;;;;;;5.47;4.75;;;;;;;;;;5040803;28;20075;-65
2022/04/04 11:48:17;;;;;;;4.22;3.83;;;;;;;;;;5059264;28;20045;-65
2022/04/04 11:50:45;;;;;;;6.05;4.40;;;;;;;;;;5060686;28;20041;-65
2022/04/04 11:53:14;;;;;;;5.05;4.25;;;;;;;;;;5062607;28;20102;-65
2022/04/04 11:55:42;;;;;;;4.72;3.97;;;;;;;;;;5043607;28;20049;-66
2022/04/04 11:58:12;;;;;;;6.47;3.90;;;;;;;;;;5059240;28;20052;-66
2022/04/04 12:00:55;;;;;;;5.13;4.45;;;;;;;;;;5058224;28;20470;-66
2022/04/04 12:03:23;;;;;;;4.53;4.13;;;;;;;;;;5061120;28;20487;-66
2022/04/04 12:05:50;;;;;;;4.35;3.75;;;;;;;;;;5024966;28;20056;-66
2022/04/04 12:08:19;;;;;;;4.00;3.58;;;;;;;;;;5061586;28;20564;-68
2022/04/04 12:10:48;;;;;;;5.57;4.60;;;;;;;;;;5061970;28;20511;-65
2022/04/04 12:13:19;;;;;;;5.35;3.90;;;;;;;;;;5061330;28;20045;-65
2022/04/04 12:15:49;;;;;;;6.22;3.22;;;;;;;;;;5065522;28;20075;-65
2022/04/04 12:18:24;;;;;;;6.30;4.28;;;;;;;;;;5061351;28;20131;-64
2022/04/04 12:20:52;;;;;;;5.75;3.47;;;;;;;;;;5061776;28;20175;-64
2022/04/04 12:26:10;;;;;;;5.57;4.15;;;;;;;;;;5043418;28;20052;-64
2022/04/04 12:28:51;;;;;;;4.68;3.72;;;;;;;;;;5041283;28;20503;-65
2022/04/04 12:31:25;;;;;;;4.47;4.05;;;;;;;;;;5060032;28;20058;-64
2022/04/04 12:34:10;;;;;;;4.63;3.80;;;;;;;;;;5058812;28;20424;-64
2022/04/04 12:36:43;;;;;;;3.90;3.47;;;;;;;;;;5041404;28;20052;-65
2022/04/04 12:39:20;;;;;;;3.80;3.50;;;;;;;;;;5061122;28;20468;-65
2022/04/04 12:41:51;;;;;;;6.07;3.70;;;;;;;;;;5041699;28;20053;-65
2022/04/04 12:44:19;;;;;;;4.32;3.30;;;;;;;;;;5057158;28;20049;-64
2022/04/04 12:46:46;;;;;;;4.65;3.55;;;;;;;;;;5059177;28;20049;-65
2022/04/04 12:49:18;;;;;;;6.80;3.50;;;;;;;;;;5057268;28;20059;-65
2022/04/04 12:51:58;;;;;;;3.53;3.22;;;;;;;;;;5062590;28;20052;-65
2022/04/04 12:54:26;;;;;;;3.75;3.45;;;;;;;;;;5056837;28;20045;-65
2022/04/04 12:56:53;;;;;;;3.97;3.58;;;;;;;;;;5056769;28;20507;-65
2022/04/04 12:59:25;;;;;;;4.43;3.97;;;;;;;;;;5054689;28;20048;-65
2022/04/04 13:02:09;;;;;;;4.07;3.67;;;;;;;;;;5058739;28;20049;-65
2022/04/04 13:04:37;;;;;;;4.32;3.92;;;;;;;;;;5056844;28;20063;-65
2022/04/04 13:07:19;;;;;;;4.05;3.75;;;;;;;;;;5058425;28;20562;-65
2022/04/04 13:09:53;;;;;;;4.30;3.90;;;;;;;;;;5058542;28;20469;-65
2022/04/04 13:12:30;;;;;;;5.15;4.28;;;;;;;;;;5063180;28;20388;-64
2022/04/04 13:14:58;;;;;;;4.97;3.78;;;;;;;;;;5061674;28;20051;-65
2022/04/04 13:17:35;;;;;;;4.72;4.28;;;;;;;;;;5057487;28;21182;-73
2022/04/04 13:20:04;;;;;;;4.63;3.70;;;;;;;;;;5051001;28;20052;-72
2022/04/04 13:22:31;;;;;;;5.72;3.80;;;;;;;;;;5063311;28;20048;-72
2022/04/04 13:24:58;;;;;;;4.32;3.80;;;;;;;;;;5063555;28;20084;-69
2022/04/04 13:27:25;;;;;;;5.78;4.15;;;;;;;;;;5061931;28;20040;-72
2022/04/04 13:29:53;;;;;;;3.97;3.65;;;;;;;;;;5061234;28;20053;-77
2022/04/04 13:32:20;;;;;;;6.20;4.25;;;;;;;;;;5063854;28;20082;-70
2022/04/04 13:34:46;;;;;;;5.85;4.55;;;;;;;;;;5060968;28;20059;-74
2022/04/04 13:37:13;;;;;;;4.45;4.05;;;;;;;;;;5062027;28;20109;-69
2022/04/04 13:39:41;;;;;;;5.25;3.85;;;;;;;;;;5055345;28;20595;-74
2022/04/04 13:42:08;;;;;;;4.50;3.95;;;;;;;;;;5045706;28;20056;-73
2022/04/04 13:44:38;;;;;;;5.25;4.05;;;;;;;;;;5061903;28;20048;-73
2022/04/04 13:47:04;;;;;;;4.90;3.97;;;;;;;;;;5059915;28;20472;-74
2022/04/04 13:49:31;;;;;;;4.72;4.22;;;;;;;;;;5059907;28;20132;-71
2022/04/04 13:51:58;;;;;;;5.93;4.35;;;;;;;;;;5065103;28;20040;-70
2022/04/04 13:54:25;;;;;;;6.95;4.35;;;;;;;;;;5063236;28;20066;-73
2022/04/04 13:56:52;;;;;;;4.75;4.20;;;;;;;;;;5029411;28;20067;-69
2022/04/04 13:59:25;;;;;;;6.40;4.40;;;;;;;;;;5063612;28;20123;-70
2022/04/04 14:01:51;;;;;;;6.18;5.00;;;;;;;;;;5058369;28;20404;-70
2022/04/04 14:04:18;;;;;;;5.32;4.43;;;;;;;;;;5061374;28;20048;-69
2022/04/04 14:06:45;;;;;;;10.38;4.35;;;;;;;;;;5064590;28;20068;-73
2022/04/04 14:09:12;;;;;;;5.10;4.07;;;;;;;;;;5067810;28;20045;-70
2022/04/04 14:11:40;;;;;;;6.03;4.18;;;;;;;;;;5060521;28;20123;-70
2022/04/04 14:14:07;;;;;;;4.75;4.25;;;;;;;;;;5026329;28;20048;-70
2022/04/04 14:16:34;;;;;;;5.78;4.88;;;;;;;;;;5061894;28;20049;-70
2022/04/04 14:19:01;;;;;;;6.95;6.03;;;;;;;;;;5060170;28;20127;-69
2022/04/04 14:21:27;;;;;;;4.88;4.45;;;;;;;;;;5064625;28;20049;-69
2022/04/04 14:23:54;;;;;;;5.22;4.63;;;;;;;;;;5045367;28;20122;-74
2022/04/04 14:26:21;;;;;;;5.45;4.85;;;;;;;;;;5065978;28;20054;-73
2022/04/04 14:28:47;;;;;;;4.65;4.07;;;;;;;;;;5062338;28;20053;-72
2022/04/04 14:31:15;;;;;;;6.40;5.07;;;;;;;;;;5078677;23;20057;-73
2022/04/04 14:33:41;;;;;;;4.85;4.43;;;;;;;;;;5028091;28;20057;-70
2022/04/04 14:36:08;;;;;;;6.25;5.47;;;;;;;;;;5044689;28;20068;-69
2022/04/04 14:38:37;;;;;;;5.57;4.78;;;;;;;;;;5043225;28;20053;-68
2022/04/04 14:41:06;;;;;;;5.93;4.35;;;;;;;;;;5040280;28;20049;-68
2022/04/04 14:43:33;;;;;;;4.78;4.32;;;;;;;;;;5040630;28;20052;-67
2022/04/04 14:46:01;;;;;;;6.20;4.55;;;;;;;;;;5040219;28;20053;-66
2022/04/04 14:48:27;;;;;;;6.50;4.07;;;;;;;;;;5040641;28;20397;-67
2022/04/04 14:50:54;;;;;;;6.53;4.50;;;;;;;;;;5041834;28;20053;-67